Time;durP1;ratioP1;P1;durP2;ratioP2;P2;SDS_P1;SDS_P2;PMS_P1;PMS_P2;Temp;Humidity;BMP_temperature;BMP_pressure;BME280_temperature;BME280_humidity;BME280_pressure;Samples;Min_cycle;Max_cycle;Signal;HPM_P1;HPM_P2
2022/09/06 00:00:12;;;;;;;8.32;7.47;;;18.30;99.90;;;;;;5065068;28;20032;-78
2022/09/06 00:02:38;;;;;;;13.50;8.23;;;18.20;99.90;;;;;;5064805;28;20031;-77
2022/09/06 00:05:05;;;;;;;8.95;8.05;;;18.20;99.90;;;;;;5066942;28;20127;-78
2022/09/06 00:07:31;;;;;;;11.55;8.52;;;18.20;99.90;;;;;;5068125;28;20492;-78
2022/09/06 00:09:56;;;;;;;10.70;8.82;;;18.20;99.90;;;;;;5066611;28;20024;-77
2022/09/06 00:12:23;;;;;;;12.98;8.93;;;18.10;99.90;;;;;;5062805;28;20024;-77
2022/09/06 00:14:49;;;;;;;13.50;9.20;;;18.20;99.90;;;;;;5068069;28;20031;-77
2022/09/06 00:17:15;;;;;;;16.02;9.05;;;18.20;99.90;;;;;;5063559;28;20490;-78
2022/09/06 00:19:41;;;;;;;13.27;9.25;;;18.20;99.90;;;;;;5068494;28;20025;-78
2022/09/06 00:22:06;;;;;;;11.40;8.88;;;18.20;99.90;;;;;;5067071;28;20564;-78
2022/09/06 00:24:32;;;;;;;10.45;8.13;;;18.30;99.90;;;;;;5066464;28;20029;-77
2022/09/06 00:26:57;;;;;;;9.80;8.00;;;18.30;99.90;;;;;;5063393;28;20033;-78
2022/09/06 00:29:23;;;;;;;9.60;7.38;;;18.30;99.90;;;;;;5068250;28;20024;-77
2022/09/06 00:31:49;;;;;;;9.02;7.60;;;18.40;99.90;;;;;;5063921;28;20021;-78
2022/09/06 00:34:14;;;;;;;12.32;7.50;;;18.40;99.90;;;;;;5067593;28;20020;-78
2022/09/06 00:36:40;;;;;;;11.05;7.78;;;18.40;99.90;;;;;;5066792;28;20024;-78
2022/09/06 00:39:05;;;;;;;9.43;7.90;;;18.40;99.90;;;;;;5068785;28;20108;-78
2022/09/06 00:41:31;;;;;;;10.45;7.90;;;18.40;99.90;;;;;;5064655;28;20473;-78
2022/09/06 00:43:56;;;;;;;11.73;8.77;;;18.40;99.90;;;;;;5069040;28;20464;-78
2022/09/06 00:46:25;;;;;;;11.45;8.55;;;18.40;99.90;;;;;;5066569;28;20370;-78
2022/09/06 00:49:23;;;;;;;12.88;8.15;;;18.40;99.90;;;;;;5067667;28;20035;-77
2022/09/06 00:51:54;;;;;;;12.82;9.05;;;18.40;99.90;;;;;;5065251;28;20554;-78
2022/09/06 00:54:20;;;;;;;12.18;7.90;;;18.30;99.90;;;;;;5065685;28;20153;-77
2022/09/06 00:56:46;;;;;;;14.93;8.80;;;18.30;99.90;;;;;;5066240;28;20153;-78
2022/09/06 00:59:12;;;;;;;12.82;9.00;;;18.20;99.90;;;;;;5070721;28;20547;-77
2022/09/06 01:01:37;;;;;;;10.38;7.97;;;18.20;99.90;;;;;;5070625;28;20099;-77
2022/09/06 01:04:03;;;;;;;8.38;7.03;;;18.20;99.90;;;;;;5066968;28;20454;-77
2022/09/06 01:06:32;;;;;;;8.73;7.82;;;18.20;99.90;;;;;;5071243;28;20576;-79
2022/09/06 01:09:18;;;;;;;7.55;6.75;;;18.20;99.90;;;;;;5071669;28;20495;-78
2022/09/06 01:11:47;;;;;;;9.95;7.20;;;18.20;99.90;;;;;;5064913;28;20024;-78
2022/09/06 01:14:20;;;;;;;7.90;6.93;;;18.20;99.90;;;;;;5071419;28;20090;-78
2022/09/06 01:17:00;;;;;;;10.02;7.25;;;18.10;99.90;;;;;;5066877;28;20028;-78
2022/09/06 01:19:46;;;;;;;10.43;8.93;;;18.10;99.90;;;;;;5071870;28;20111;-78
2022/09/06 01:22:31;;;;;;;9.45;8.13;;;18.10;99.90;;;;;;5063451;28;20082;-77
2022/09/06 01:25:18;;;;;;;8.68;7.75;;;18.10;99.90;;;;;;5069513;28;20110;-77
2022/09/06 01:28:11;;;;;;;12.63;7.78;;;18.00;99.90;;;;;;5063682;28;20089;-78
2022/09/06 01:30:42;;;;;;;10.32;9.10;;;18.00;99.90;;;;;;5064313;28;20053;-77
2022/09/06 01:33:25;;;;;;;12.30;8.48;;;17.90;99.90;;;;;;5068992;28;20384;-77
2022/09/06 01:36:02;;;;;;;9.52;7.97;;;17.90;99.90;;;;;;5066520;28;20385;-77
2022/09/06 01:38:28;;;;;;;12.73;9.23;;;17.90;99.90;;;;;;5070739;28;20473;-77
2022/09/06 01:40:53;;;;;;;12.50;9.40;;;17.80;99.90;;;;;;5070449;28;20023;-77
2022/09/06 01:43:29;;;;;;;13.52;8.15;;;17.80;99.90;;;;;;5069771;28;20366;-77
2022/09/06 01:46:32;;;;;;;9.63;8.05;;;17.70;99.90;;;;;;5068739;28;20128;-77
2022/09/06 01:49:09;;;;;;;10.60;7.22;;;17.70;99.90;;;;;;5066721;28;20111;-77
2022/09/06 01:51:47;;;;;;;8.63;7.47;;;17.70;99.90;;;;;;5069037;28;20037;-78
2022/09/06 01:54:24;;;;;;;12.23;6.85;;;17.70;99.90;;;;;;5064677;28;20078;-77
2022/09/06 01:57:18;;;;;;;18.25;9.63;;;17.70;99.90;;;;;;5068269;28;20115;-77
2022/09/06 01:59:56;;;;;;;19.67;8.13;;;17.70;99.90;;;;;;5069679;28;20024;-78
2022/09/06 02:02:55;;;;;;;12.23;9.18;;;17.70;99.90;;;;;;5068863;28;20024;-77
2022/09/06 02:05:32;;;;;;;11.43;8.55;;;17.60;99.90;;;;;;5068713;28;20048;-77
2022/09/06 02:08:03;;;;;;;9.45;7.72;;;17.60;99.90;;;;;;5068783;28;20388;-77
2022/09/06 02:10:44;;;;;;;10.73;8.55;;;17.50;99.90;;;;;;5069926;28;20249;-78
2022/09/06 02:13:13;;;;;;;12.40;8.95;;;17.50;99.90;;;;;;5059590;28;20123;-77
2022/09/06 02:15:48;;;;;;;11.43;8.32;;;17.50;99.90;;;;;;5070309;28;20045;-77
2022/09/06 02:18:28;;;;;;;18.20;8.93;;;17.40;99.90;;;;;;5068751;28;20103;-78
2022/09/06 02:20:57;;;;;;;14.93;9.45;;;17.40;99.90;;;;;;5069974;28;20028;-77
2022/09/06 02:23:27;;;;;;;14.73;8.68;;;17.40;99.90;;;;;;5069465;28;20044;-77
2022/09/06 02:25:56;;;;;;;10.40;8.10;;;17.30;99.90;;;;;;5068351;28;20063;-77
2022/09/06 02:28:22;;;;;;;8.82;7.30;;;17.30;99.90;;;;;;5062135;28;20032;-77
2022/09/06 02:30:55;;;;;;;13.50;9.10;;;17.20;99.90;;;;;;5067218;28;20039;-78
2022/09/06 02:33:25;;;;;;;17.33;9.35;;;17.20;99.90;;;;;;5067547;28;20036;-77
2022/09/06 02:35:53;;;;;;;15.13;9.43;;;17.20;99.90;;;;;;5068158;28;20048;-77
2022/09/06 02:38:23;;;;;;;9.43;8.40;;;17.10;99.90;;;;;;5068353;28;20477;-77
2022/09/06 02:41:27;;;;;;;10.02;8.25;;;17.10;99.90;;;;;;5093228;27;20125;-77
2022/09/06 02:43:53;;;;;;;10.05;8.35;;;17.00;99.90;;;;;;5085687;28;20477;-77
2022/09/06 02:46:18;;;;;;;13.15;8.38;;;17.00;99.90;;;;;;5080543;28;20124;-77
2022/09/06 02:48:44;;;;;;;12.88;9.05;;;17.00;99.90;;;;;;5084872;28;20416;-78
2022/09/06 02:51:10;;;;;;;11.63;8.88;;;16.90;99.90;;;;;;5081645;28;20020;-77
2022/09/06 02:53:36;;;;;;;10.60;9.00;;;16.90;99.90;;;;;;5076444;28;20040;-77
2022/09/06 02:56:02;;;;;;;12.98;9.20;;;16.80;99.90;;;;;;5082701;28;20028;-77
2022/09/06 02:58:28;;;;;;;12.73;9.70;;;16.80;99.90;;;;;;5080747;28;20115;-77
2022/09/06 03:00:53;;;;;;;10.23;7.82;;;16.70;99.90;;;;;;5081020;28;20047;-77
2022/09/06 03:03:20;;;;;;;9.52;8.45;;;16.70;99.90;;;;;;5077570;28;20025;-77
2022/09/06 03:05:48;;;;;;;14.57;9.75;;;16.70;99.90;;;;;;5082809;28;20465;-77
2022/09/06 03:08:15;;;;;;;9.68;8.68;;;16.70;99.90;;;;;;5083996;28;20036;-78
2022/09/06 03:10:40;;;;;;;12.88;9.90;;;16.60;99.90;;;;;;5081228;28;20059;-77
2022/09/06 03:13:06;;;;;;;11.63;8.57;;;16.60;99.90;;;;;;5084238;28;20048;-77
2022/09/06 03:15:31;;;;;;;8.93;8.02;;;16.60;99.90;;;;;;5083456;28;20065;-77
2022/09/06 03:17:58;;;;;;;7.53;6.78;;;16.60;99.90;;;;;;5078229;28;20032;-78
2022/09/06 03:20:24;;;;;;;12.45;8.27;;;16.70;99.90;;;;;;5081197;28;20048;-78
2022/09/06 03:22:50;;;;;;;10.05;8.00;;;16.70;99.90;;;;;;5084479;28;20044;-77
2022/09/06 03:25:16;;;;;;;8.18;7.35;;;16.70;99.90;;;;;;5080785;28;20024;-78
2022/09/06 03:27:42;;;;;;;8.35;7.15;;;16.70;99.90;;;;;;5081575;28;20029;-77
2022/09/06 03:30:09;;;;;;;14.13;8.20;;;16.70;99.90;;;;;;5082496;28;20024;-77
2022/09/06 03:32:35;;;;;;;11.23;8.25;;;16.80;99.90;;;;;;5082182;28;20066;-77
2022/09/06 03:35:01;;;;;;;11.68;8.98;;;16.70;99.90;;;;;;5082693;28;20021;-77
2022/09/06 03:37:27;;;;;;;9.73;8.18;;;16.70;99.90;;;;;;5074745;28;20059;-77
2022/09/06 03:39:52;;;;;;;10.98;9.23;;;16.80;99.90;;;;;;5085730;28;20044;-77
2022/09/06 03:42:18;;;;;;;11.68;8.65;;;16.80;99.90;;;;;;5082229;28;20368;-77
2022/09/06 03:44:43;;;;;;;10.60;9.32;;;16.70;99.90;;;;;;5082720;28;20020;-80
2022/09/06 03:47:09;;;;;;;10.35;8.35;;;16.70;99.90;;;;;;5079701;28;20031;-77
2022/09/06 03:49:34;;;;;;;11.05;8.93;;;16.70;99.90;;;;;;5074199;28;20536;-77
2022/09/06 03:52:00;;;;;;;10.68;9.25;;;16.70;99.90;;;;;;5066920;28;20473;-78
2022/09/06 03:54:27;;;;;;;11.82;9.43;;;16.80;99.90;;;;;;5068733;28;20390;-79
2022/09/06 03:56:54;;;;;;;11.95;8.85;;;16.70;99.90;;;;;;5065569;28;20024;-77
2022/09/06 03:59:19;;;;;;;15.63;10.25;;;16.70;99.90;;;;;;5061704;28;20059;-77
2022/09/06 04:01:45;;;;;;;12.20;9.10;;;16.70;99.90;;;;;;5067903;28;20021;-78
2022/09/06 04:04:10;;;;;;;14.68;10.40;;;16.70;99.90;;;;;;5066607;28;20103;-77
2022/09/06 04:06:36;;;;;;;15.98;9.88;;;16.70;99.90;;;;;;5063767;28;20144;-77
2022/09/06 04:09:02;;;;;;;12.50;9.27;;;16.60;99.90;;;;;;5068581;28;20048;-78
2022/09/06 04:11:27;;;;;;;11.68;9.07;;;16.60;99.90;;;;;;5070872;28;20020;-77
2022/09/06 04:13:53;;;;;;;11.57;9.20;;;16.60;99.90;;;;;;5064114;28;20028;-77
2022/09/06 04:16:18;;;;;;;15.18;10.98;;;16.60;99.90;;;;;;5065671;28;20032;-77
2022/09/06 04:18:44;;;;;;;12.68;9.43;;;16.50;99.90;;;;;;5066790;28;20023;-77
2022/09/06 04:21:09;;;;;;;12.70;10.15;;;16.50;99.90;;;;;;5071297;28;20036;-77
2022/09/06 04:23:35;;;;;;;13.70;9.88;;;16.50;99.90;;;;;;5066666;28;20036;-78
2022/09/06 04:26:01;;;;;;;15.95;9.90;;;16.50;99.90;;;;;;5066942;28;20385;-78
2022/09/06 04:28:27;;;;;;;11.18;8.82;;;16.50;99.90;;;;;;5065287;28;20033;-77
2022/09/06 04:30:55;;;;;;;12.10;9.18;;;16.40;99.90;;;;;;5064863;28;20440;-78
2022/09/06 04:33:24;;;;;;;9.13;8.05;;;16.40;99.90;;;;;;5062277;28;20078;-78
2022/09/06 04:35:51;;;;;;;10.50;8.52;;;16.40;99.90;;;;;;5063977;28;20092;-77
2022/09/06 04:38:17;;;;;;;11.30;9.88;;;16.40;99.90;;;;;;5064597;28;20036;-77
2022/09/06 04:40:42;;;;;;;13.25;10.85;;;16.40;99.90;;;;;;5068663;28;20048;-77
2022/09/06 04:43:08;;;;;;;12.95;10.30;;;16.40;99.90;;;;;;5057266;28;20044;-78
2022/09/06 04:45:33;;;;;;;13.52;9.38;;;16.40;99.90;;;;;;5060844;28;20572;-77
2022/09/06 04:47:59;;;;;;;15.60;9.77;;;16.30;99.90;;;;;;5067951;28;20131;-78
2022/09/06 04:50:24;;;;;;;12.60;9.40;;;16.30;99.90;;;;;;5065975;28;20025;-77
2022/09/06 04:52:50;;;;;;;12.52;9.05;;;16.20;99.90;;;;;;5065742;28;20089;-77
2022/09/06 04:55:15;;;;;;;9.52;8.18;;;16.20;99.90;;;;;;5062390;28;20081;-78
2022/09/06 04:57:41;;;;;;;11.93;9.10;;;16.20;99.90;;;;;;5063765;28;20358;-77
2022/09/06 05:00:07;;;;;;;10.63;8.73;;;16.20;99.90;;;;;;5063176;28;20059;-78
2022/09/06 05:02:32;;;;;;;17.48;11.13;;;16.20;99.90;;;;;;5064865;28;20036;-78
2022/09/06 05:04:58;;;;;;;10.13;9.00;;;16.20;99.90;;;;;;5067930;28;20050;-78
2022/09/06 05:07:24;;;;;;;11.30;8.65;;;16.20;99.90;;;;;;5061826;28;20127;-78
2022/09/06 05:09:49;;;;;;;9.07;7.90;;;16.20;99.90;;;;;;5063925;28;20039;-77
2022/09/06 05:12:15;;;;;;;13.23;8.20;;;16.20;99.90;;;;;;5058998;28;20119;-78
2022/09/06 05:14:40;;;;;;;16.92;8.93;;;16.20;99.90;;;;;;5060775;28;20028;-77
2022/09/06 05:17:06;;;;;;;8.35;7.55;;;16.20;99.90;;;;;;5061347;28;20040;-78
2022/09/06 05:19:31;;;;;;;17.40;10.13;;;16.20;99.90;;;;;;5056304;28;20035;-77
2022/09/06 05:21:57;;;;;;;9.82;7.60;;;16.20;99.90;;;;;;5059063;28;20074;-77
2022/09/06 05:24:22;;;;;;;14.98;9.10;;;16.20;99.90;;;;;;5065724;28;20021;-77
2022/09/06 05:26:48;;;;;;;9.43;7.57;;;16.20;99.90;;;;;;5066056;28;20028;-78
2022/09/06 05:29:13;;;;;;;13.85;7.55;;;16.30;99.90;;;;;;5060638;28;20032;-78
2022/09/06 05:31:39;;;;;;;12.75;7.75;;;16.30;99.90;;;;;;5063539;28;20494;-77
2022/09/06 05:34:04;;;;;;;10.93;8.73;;;16.30;99.90;;;;;;5059734;28;20167;-77
2022/09/06 05:36:30;;;;;;;10.15;7.75;;;16.20;99.90;;;;;;5065783;28;20118;-78
2022/09/06 05:38:56;;;;;;;12.75;8.30;;;16.20;99.90;;;;;;5067273;28;20028;-77
2022/09/06 05:41:23;;;;;;;10.10;8.00;;;16.20;99.90;;;;;;5059161;28;20056;-77
2022/09/06 05:43:48;;;;;;;10.93;7.40;;;16.20;99.90;;;;;;5054786;28;20347;-77
2022/09/06 05:46:15;;;;;;;10.50;7.28;;;16.30;99.90;;;;;;5063290;28;20431;-78
2022/09/06 05:48:41;;;;;;;8.43;6.90;;;16.20;99.90;;;;;;5061565;28;20047;-77
2022/09/06 05:51:11;;;;;;;11.05;7.22;;;16.30;99.90;;;;;;5068576;28;20029;-77
2022/09/06 05:53:39;;;;;;;11.82;7.80;;;16.30;99.90;;;;;;5066357;28;20082;-77
2022/09/06 05:56:06;;;;;;;11.65;7.90;;;16.30;99.90;;;;;;5061155;28;20025;-77
2022/09/06 05:58:32;;;;;;;11.02;8.07;;;16.30;99.90;;;;;;5061394;28;20048;-77
2022/09/06 06:01:25;;;;;;;13.85;7.82;;;16.40;99.90;;;;;;5068494;28;20036;-78
2022/09/06 06:03:56;;;;;;;9.93;7.75;;;16.30;99.90;;;;;;5056827;28;20033;-78
2022/09/06 06:06:22;;;;;;;8.60;7.03;;;16.30;99.90;;;;;;5066654;28;20287;-77
2022/09/06 06:08:48;;;;;;;9.80;6.22;;;16.40;99.90;;;;;;5062443;28;20020;-77
2022/09/06 06:11:14;;;;;;;10.45;7.03;;;16.40;99.90;;;;;;5062537;28;20200;-78
2022/09/06 06:13:42;;;;;;;10.52;7.97;;;16.40;99.90;;;;;;5064601;28;20032;-77
2022/09/06 06:16:10;;;;;;;10.63;8.25;;;16.40;99.90;;;;;;5065059;28;20078;-77
2022/09/06 06:18:37;;;;;;;15.35;9.02;;;16.40;99.90;;;;;;5057047;28;20082;-77
2022/09/06 06:21:14;;;;;;;11.20;7.32;;;16.50;99.90;;;;;;5062353;28;20036;-77
2022/09/06 06:23:41;;;;;;;12.60;7.07;;;16.50;99.90;;;;;;5059820;28;20020;-77
2022/09/06 06:26:08;;;;;;;15.18;6.70;;;16.50;99.90;;;;;;5061656;28;20021;-77
2022/09/06 06:28:34;;;;;;;11.73;6.30;;;16.50;99.90;;;;;;5064574;28;20027;-77
2022/09/06 06:31:01;;;;;;;10.07;7.00;;;16.60;99.90;;;;;;5057376;28;20119;-78
2022/09/06 06:33:27;;;;;;;9.52;7.55;;;16.60;99.90;;;;;;5063184;28;20036;-77
2022/09/06 06:36:07;;;;;;;12.73;7.45;;;16.60;99.90;;;;;;5064949;28;20021;-77
2022/09/06 06:38:36;;;;;;;11.82;7.78;;;16.60;99.90;;;;;;5064597;28;20082;-78
2022/09/06 06:41:04;;;;;;;10.00;6.57;;;16.60;99.90;;;;;;5063674;28;20097;-77
2022/09/06 06:43:35;;;;;;;9.05;6.53;;;16.60;99.90;;;;;;5064185;28;20686;-78
2022/09/06 06:46:02;;;;;;;10.95;6.97;;;16.60;99.90;;;;;;5065426;28;20032;-78
2022/09/06 06:48:28;;;;;;;8.90;6.55;;;16.60;99.90;;;;;;5066605;28;20472;-78
2022/09/06 06:50:54;;;;;;;9.65;5.90;;;16.60;99.90;;;;;;5064857;28;20029;-77
2022/09/06 06:53:19;;;;;;;10.20;6.13;;;16.60;99.90;;;;;;5062838;28;20033;-77
2022/09/06 06:55:47;;;;;;;11.25;7.03;;;16.60;99.90;;;;;;5064450;28;20028;-78
2022/09/06 06:58:14;;;;;;;8.98;6.60;;;16.60;99.90;;;;;;5057214;28;20024;-77
2022/09/06 07:00:40;;;;;;;8.15;6.57;;;16.60;99.90;;;;;;5062096;28;20134;-77
2022/09/06 07:03:07;;;;;;;11.10;7.18;;;16.70;99.90;;;;;;5063789;28;20021;-77
2022/09/06 07:05:32;;;;;;;9.65;6.47;;;16.60;99.90;;;;;;5062741;28;20032;-78
2022/09/06 07:07:58;;;;;;;17.00;6.90;;;16.70;99.90;;;;;;5057675;28;20477;-78
2022/09/06 07:10:24;;;;;;;13.40;7.10;;;16.70;99.90;;;;;;5062230;28;20131;-77
2022/09/06 07:12:50;;;;;;;11.38;6.85;;;16.70;99.90;;;;;;5058301;28;20039;-77
2022/09/06 07:15:16;;;;;;;8.55;6.90;;;16.70;99.90;;;;;;5057432;28;20028;-77
2022/09/06 07:17:42;;;;;;;7.25;5.70;;;16.70;99.90;;;;;;5065490;28;20071;-77
2022/09/06 07:20:09;;;;;;;10.50;6.20;;;16.70;99.90;;;;;;5062713;28;20068;-76
2022/09/06 07:22:34;;;;;;;14.23;7.53;;;16.70;99.90;;;;;;5061104;28;20040;-77
2022/09/06 07:25:00;;;;;;;8.95;5.50;;;16.70;99.90;;;;;;5063778;28;20427;-78
2022/09/06 07:27:26;;;;;;;16.02;6.97;;;16.80;99.90;;;;;;5061940;28;20180;-77
2022/09/06 07:29:51;;;;;;;13.82;7.07;;;16.80;99.90;;;;;;5071711;28;20055;-77
2022/09/06 07:32:17;;;;;;;12.30;6.25;;;16.90;99.90;;;;;;5063286;28;20032;-77
2022/09/06 07:34:42;;;;;;;9.65;5.20;;;16.90;99.90;;;;;;5066385;28;20028;-77
2022/09/06 07:37:08;;;;;;;7.70;5.45;;;16.90;99.90;;;;;;5062887;28;20033;-77
2022/09/06 07:39:35;;;;;;;9.45;5.68;;;16.90;99.90;;;;;;5063737;28;20056;-77
2022/09/06 07:42:01;;;;;;;18.00;6.50;;;17.00;99.90;;;;;;5059695;28;20048;-78
2022/09/06 07:44:28;;;;;;;8.52;6.35;;;17.00;99.90;;;;;;5068545;28;20035;-77
2022/09/06 07:46:53;;;;;;;14.32;7.38;;;17.10;99.90;;;;;;5071103;28;20021;-77
2022/09/06 07:49:19;;;;;;;15.40;7.05;;;17.10;99.90;;;;;;5071189;28;20040;-77
2022/09/06 07:51:46;;;;;;;6.63;5.82;;;17.30;99.90;;;;;;5062360;28;20022;-79
2022/09/06 07:54:11;;;;;;;8.93;6.22;;;17.30;99.90;;;;;;5071411;28;20029;-77
2022/09/06 07:56:37;;;;;;;11.05;7.13;;;17.30;99.90;;;;;;5070397;28;20039;-77
2022/09/06 07:59:03;;;;;;;13.00;6.88;;;17.40;99.90;;;;;;5062097;28;20024;-77
2022/09/06 08:01:31;;;;;;;9.73;6.75;;;17.40;99.90;;;;;;5071729;28;20123;-78
2022/09/06 08:03:58;;;;;;;15.80;7.20;;;17.50;99.90;;;;;;5071181;28;20040;-77
2022/09/06 08:06:25;;;;;;;15.30;7.70;;;17.50;99.90;;;;;;5071513;28;20024;-77
2022/09/06 08:08:51;;;;;;;10.73;6.15;;;17.60;99.90;;;;;;5070804;28;20073;-77
2022/09/06 08:11:17;;;;;;;12.90;7.35;;;17.60;99.90;;;;;;5066306;28;20032;-78
2022/09/06 08:13:43;;;;;;;17.95;7.60;;;17.70;99.90;;;;;;5070671;28;20036;-79
2022/09/06 08:16:10;;;;;;;11.50;8.05;;;17.80;99.90;;;;;;5071510;28;20024;-78
2022/09/06 08:18:37;;;;;;;18.90;7.82;;;17.80;99.90;;;;;;5070397;28;20036;-77
2022/09/06 08:21:14;;;;;;;16.40;7.95;;;17.90;99.90;;;;;;5071483;28;20055;-77
2022/09/06 08:23:43;;;;;;;11.52;7.22;;;18.00;99.90;;;;;;5065513;28;20070;-77
2022/09/06 08:26:10;;;;;;;9.80;6.82;;;18.10;99.90;;;;;;5071370;28;20024;-78
2022/09/06 08:28:35;;;;;;;12.85;7.28;;;18.20;99.90;;;;;;5070417;28;20029;-77
2022/09/06 08:31:06;;;;;;;16.45;7.20;;;18.20;99.90;;;;;;5071366;28;20412;-78
2022/09/06 08:33:32;;;;;;;18.50;7.90;;;18.30;99.90;;;;;;5069996;28;20051;-78
2022/09/06 08:35:57;;;;;;;13.50;6.25;;;18.40;99.90;;;;;;5071473;28;20028;-77
2022/09/06 08:38:24;;;;;;;7.82;6.88;;;18.50;99.90;;;;;;5069853;28;20031;-77
2022/09/06 08:40:51;;;;;;;17.10;7.65;;;18.60;99.90;;;;;;5070703;28;20048;-78
2022/09/06 08:43:19;;;;;;;12.50;6.88;;;18.70;99.90;;;;;;5070022;28;20039;-78
2022/09/06 08:45:49;;;;;;;14.20;7.55;;;18.80;99.90;;;;;;5071360;28;20028;-78
2022/09/06 08:48:15;;;;;;;16.67;6.47;;;18.90;99.90;;;;;;5061650;28;20025;-79
2022/09/06 08:50:48;;;;;;;14.13;7.10;;;18.90;99.90;;;;;;5071383;28;20099;-77
2022/09/06 08:53:17;;;;;;;11.48;6.57;;;19.00;99.90;;;;;;5063390;28;20090;-78
2022/09/06 08:55:56;;;;;;;10.75;6.15;;;19.10;99.90;;;;;;5070975;28;20132;-79
2022/09/06 08:58:26;;;;;;;17.80;6.80;;;19.10;99.90;;;;;;5061726;28;20072;-77
2022/09/06 09:01:21;;;;;;;10.68;6.22;;;19.20;99.90;;;;;;5070930;28;20043;-78
2022/09/06 09:03:47;;;;;;;12.43;6.85;;;19.30;99.90;;;;;;5064029;28;20119;-78
2022/09/06 09:06:13;;;;;;;20.45;7.50;;;19.30;99.90;;;;;;5070780;28;20112;-80
2022/09/06 09:08:43;;;;;;;17.80;6.88;;;19.40;99.90;;;;;;5069852;28;20028;-78
2022/09/06 09:11:15;;;;;;;14.00;6.90;;;19.50;99.90;;;;;;5065290;28;20108;-78
2022/09/06 09:14:17;;;;;;;17.15;6.30;;;19.60;99.90;;;;;;5064745;28;20021;-78
2022/09/06 09:16:43;;;;;;;15.73;6.82;;;19.70;99.90;;;;;;5070682;28;20028;-79
2022/09/06 09:19:09;;;;;;;22.75;7.55;;;19.80;99.90;;;;;;5070117;28;20039;-77
2022/09/06 09:21:39;;;;;;;12.27;7.35;;;19.90;99.90;;;;;;5070179;28;20487;-78
2022/09/06 09:24:09;;;;;;;8.35;6.68;;;19.90;99.90;;;;;;5069445;28;20033;-78
2022/09/06 09:26:42;;;;;;;14.30;6.18;;;20.00;99.90;;;;;;5064860;28;20108;-78
2022/09/06 09:29:11;;;;;;;12.50;6.78;;;20.10;99.90;;;;;;5067307;28;20107;-78
2022/09/06 09:31:48;;;;;;;13.75;6.75;;;20.20;99.90;;;;;;5069923;28;20029;-78
2022/09/06 09:34:32;;;;;;;14.32;7.20;;;20.30;99.90;;;;;;5069217;28;20036;-79
2022/09/06 09:37:24;;;;;;;16.15;6.93;;;20.40;99.90;;;;;;5069571;28;20059;-79
2022/09/06 09:39:53;;;;;;;16.70;6.53;;;20.60;99.90;;;;;;5068714;28;20738;-78
2022/09/06 09:42:35;;;;;;;12.13;6.43;;;20.70;99.90;;;;;;5069880;28;20033;-78
2022/09/06 09:45:07;;;;;;;9.07;5.63;;;20.80;99.90;;;;;;5069203;28;20029;-79
2022/09/06 09:47:33;;;;;;;15.68;6.40;;;20.80;99.90;;;;;;5066525;28;20634;-77
2022/09/06 09:49:59;;;;;;;11.77;6.65;;;20.90;99.90;;;;;;5068893;28;20374;-78
2022/09/06 09:52:28;;;;;;;16.02;6.07;;;21.00;99.90;;;;;;5069752;28;20031;-78
2022/09/06 09:55:00;;;;;;;14.48;5.88;;;20.90;99.90;;;;;;5069249;28;20502;-78
2022/09/06 09:57:29;;;;;;;10.90;7.03;;;20.90;99.90;;;;;;5069857;28;20028;-78
2022/09/06 10:00:02;;;;;;;23.75;6.82;;;20.90;99.90;;;;;;5069146;28;20078;-78
2022/09/06 10:02:38;;;;;;;18.13;6.70;;;20.80;99.90;;;;;;5064372;28;20392;-79
2022/09/06 10:05:17;;;;;;;12.43;6.32;;;20.80;99.90;;;;;;5068616;28;20035;-78
2022/09/06 10:07:45;;;;;;;17.70;7.05;;;20.80;99.90;;;;;;5065991;28;20029;-78
2022/09/06 10:10:28;;;;;;;11.27;5.68;;;20.80;99.90;;;;;;5068979;28;20025;-78
2022/09/06 10:13:20;;;;;;;17.67;6.80;;;20.80;99.90;;;;;;5053476;28;20032;-78
2022/09/06 10:15:48;;;;;;;9.82;5.97;;;20.90;99.90;;;;;;5069427;28;20039;-78
2022/09/06 10:18:32;;;;;;;14.05;6.75;;;20.90;99.90;;;;;;5068448;28;20021;-79
2022/09/06 10:21:09;;;;;;;11.63;5.90;;;21.10;99.90;;;;;;5069535;28;20143;-80
2022/09/06 10:23:37;;;;;;;11.05;5.75;;;21.20;99.90;;;;;;5060869;28;20034;-78
2022/09/06 10:26:40;;;;;;;21.40;6.53;;;21.30;99.90;;;;;;5069366;28;20286;-79
2022/09/06 10:29:08;;;;;;;15.77;6.00;;;21.50;99.90;;;;;;5068412;28;20025;-79
2022/09/06 10:31:55;;;;;;;11.48;5.60;;;21.70;99.90;;;;;;5069018;28;20032;-78
2022/09/06 10:34:26;;;;;;;10.75;6.18;;;21.80;99.90;;;;;;5065959;28;20029;-78
2022/09/06 10:37:11;;;;;;;21.10;6.45;;;21.90;99.90;;;;;;5066987;28;20499;-78
2022/09/06 10:39:55;;;;;;;12.73;6.15;;;21.90;99.90;;;;;;5066275;28;20103;-78
2022/09/06 10:42:34;;;;;;;15.63;5.82;;;21.90;99.90;;;;;;5069100;28;20058;-77
2022/09/06 10:45:14;;;;;;;9.38;4.88;;;21.90;99.90;;;;;;5066177;28;20082;-79
2022/09/06 10:48:03;;;;;;;15.88;5.50;;;22.00;99.90;;;;;;5059142;28;20033;-78
2022/09/06 10:50:48;;;;;;;15.10;5.57;;;22.10;99.90;;;;;;5063610;28;20039;-80
2022/09/06 10:53:20;;;;;;;10.70;5.55;;;22.20;99.90;;;;;;5067745;28;20564;-80
2022/09/06 10:55:49;;;;;;;10.27;6.30;;;22.20;99.90;;;;;;5068860;28;20032;-79
2022/09/06 10:58:23;;;;;;;14.25;6.10;;;22.20;99.90;;;;;;5067874;28;20059;-81
2022/09/06 11:00:51;;;;;;;9.75;5.22;;;22.30;99.90;;;;;;5069016;28;20471;-78
2022/09/06 11:03:34;;;;;;;10.50;5.47;;;22.40;99.90;;;;;;5071909;28;20032;-79
2022/09/06 11:06:11;;;;;;;8.57;5.07;;;22.40;99.90;;;;;;5073069;28;20378;-80
2022/09/06 11:08:55;;;;;;;9.68;5.00;;;22.40;99.90;;;;;;5066933;28;20570;-78
2022/09/06 11:11:45;;;;;;;10.23;5.32;;;22.40;99.90;;;;;;5062597;28;20021;-79
2022/09/06 11:14:13;;;;;;;7.07;5.25;;;22.50;99.90;;;;;;5062051;28;20377;-78
2022/09/06 11:16:48;;;;;;;17.65;6.78;;;22.60;99.90;;;;;;5063172;28;20381;-78
2022/09/06 11:19:23;;;;;;;15.32;5.10;;;22.70;99.90;;;;;;5063175;28;20484;-79
2022/09/06 11:22:12;;;;;;;17.98;5.07;;;22.80;99.90;;;;;;5060187;28;20107;-77
2022/09/06 11:24:56;;;;;;;11.30;5.43;;;22.80;99.90;;;;;;5068266;28;20193;-78
2022/09/06 11:27:30;;;;;;;13.48;5.85;;;22.90;99.90;;;;;;5066659;28;20097;-79
2022/09/06 11:29:58;;;;;;;12.93;5.43;;;23.00;99.90;;;;;;5065415;28;20020;-79
2022/09/06 11:32:39;;;;;;;21.67;5.68;;;23.10;99.90;;;;;;5059920;28;20074;-79
2022/09/06 11:35:09;;;;;;;8.07;5.43;;;23.10;99.90;;;;;;5068473;28;20074;-79
2022/09/06 11:37:44;;;;;;;15.05;6.03;;;23.20;99.90;;;;;;5068537;28;20481;-78
2022/09/06 11:40:21;;;;;;;12.45;5.63;;;23.20;99.90;;;;;;5062922;28;20529;-78
2022/09/06 11:42:50;;;;;;;7.22;5.28;;;23.30;99.90;;;;;;5071007;28;20036;-79
2022/09/06 11:45:20;;;;;;;21.70;6.57;;;23.40;99.90;;;;;;5070281;28;20365;-80
2022/09/06 11:47:47;;;;;;;10.05;5.72;;;23.50;99.90;;;;;;5059613;28;20534;-79
2022/09/06 11:50:19;;;;;;;11.93;6.72;;;23.40;99.90;;;;;;5065601;28;20029;-80
2022/09/06 11:53:17;;;;;;;8.57;5.72;;;23.30;99.90;;;;;;5062830;28;20045;-80
2022/09/06 11:56:07;;;;;;;9.70;5.55;;;23.20;99.90;;;;;;5052902;28;20083;-79
2022/09/06 11:58:39;;;;;;;9.60;5.00;;;23.30;99.90;;;;;;5068815;28;20036;-79
2022/09/06 12:01:15;;;;;;;11.80;5.47;;;23.20;99.90;;;;;;5062604;28;20068;-79
2022/09/06 12:03:46;;;;;;;17.98;5.72;;;23.20;99.90;;;;;;5067917;28;20128;-78
2022/09/06 12:06:24;;;;;;;11.52;6.18;;;23.20;99.90;;;;;;5066532;28;20527;-79
2022/09/06 12:08:54;;;;;;;13.98;5.18;;;23.20;99.90;;;;;;5066124;28;20051;-79
2022/09/06 12:11:30;;;;;;;12.95;5.85;;;23.20;99.90;;;;;;5069093;28;20054;-79
2022/09/06 12:14:02;;;;;;;12.98;5.78;;;23.20;99.90;;;;;;5059592;28;20089;-78
2022/09/06 12:16:56;;;;;;;16.70;5.50;;;23.30;99.90;;;;;;5066236;28;20025;-80
2022/09/06 12:19:54;;;;;;;8.80;5.70;;;23.50;99.90;;;;;;5060978;28;20056;-79
2022/09/06 12:22:45;;;;;;;6.07;5.05;;;23.80;99.90;;;;;;5062095;28;20024;-79
2022/09/06 12:25:32;;;;;;;8.68;5.40;;;23.90;99.90;;;;;;5057345;28;20033;-79
2022/09/06 12:28:02;;;;;;;14.45;5.60;;;24.00;99.90;;;;;;5062397;28;20126;-81
2022/09/06 12:30:40;;;;;;;13.00;6.43;;;24.10;99.90;;;;;;5062716;28;20098;-79
2022/09/06 12:33:28;;;;;;;7.03;5.75;;;24.20;99.90;;;;;;5064502;28;20734;-79
2022/09/06 12:36:12;;;;;;;7.28;5.95;;;24.20;99.90;;;;;;5063949;28;20032;-79
2022/09/06 12:38:38;;;;;;;13.30;5.72;;;24.30;99.90;;;;;;5065228;28;20036;-78
2022/09/06 12:41:06;;;;;;;6.30;5.70;;;24.40;99.90;;;;;;5070323;28;20048;-78
2022/09/06 12:43:35;;;;;;;12.88;5.82;;;24.50;99.90;;;;;;5062090;28;20025;-79
2022/09/06 12:46:05;;;;;;;13.00;6.63;;;24.60;99.90;;;;;;5067936;28;20024;-79
2022/09/06 12:48:34;;;;;;;11.43;5.80;;;24.60;99.90;;;;;;5066770;28;20135;-79
2022/09/06 12:51:06;;;;;;;14.52;6.03;;;24.60;99.90;;;;;;5067966;28;20421;-80
2022/09/06 12:53:33;;;;;;;7.45;5.22;;;24.50;99.90;;;;;;5062437;28;20112;-79
2022/09/06 12:56:11;;;;;;;8.70;5.75;;;24.50;99.90;;;;;;5060749;28;20028;-80